createdAt,value
2019-04-06T00:00:15.163Z,99203.26
2019-04-06T00:00:46.450Z,99194.43
2019-04-06T00:01:17.650Z,99192.77
2019-04-06T00:01:48.851Z,99196.72
2019-04-06T00:02:20.108Z,99199.04
2019-04-06T00:02:51.344Z,99200.85
2019-04-06T00:03:22.569Z,99198.86
2019-04-06T00:03:53.870Z,99200.69
2019-04-06T00:04:25.147Z,99202.09
2019-04-06T00:04:56.479Z,99193.98
2019-04-06T00:05:27.718Z,99199.73
2019-04-06T00:05:59.007Z,99202.79
2019-04-06T00:06:30.314Z,99202.79
2019-04-06T00:07:01.588Z,99197.27
2019-04-06T00:07:32.913Z,99197.23
2019-04-06T00:08:04.178Z,99204.09
2019-04-06T00:08:35.381Z,99185.17
2019-04-06T00:09:06.660Z,99186.05
2019-04-06T00:09:37.922Z,99186.56
2019-04-06T00:10:09.168Z,99191.06
2019-04-06T00:10:40.422Z,99193.66
2019-04-06T00:11:11.656Z,99190.23
2019-04-06T00:11:42.855Z,99190.64
2019-04-06T00:12:14.096Z,99186.34
2019-04-06T00:12:45.341Z,99190.23
2019-04-06T00:13:16.573Z,99188.05
2019-04-06T00:13:47.817Z,99182.95
2019-04-06T00:14:19.125Z,99188.98
2019-04-06T00:14:50.429Z,99188.60
2019-04-06T00:15:21.685Z,99189.43
2019-04-06T00:15:52.889Z,99192.73
2019-04-06T00:16:24.158Z,99192.08
2019-04-06T00:16:55.441Z,99193.28
2019-04-06T00:17:28.722Z,99187.07
2019-04-06T00:18:00.833Z,99187.95
2019-04-06T00:18:32.119Z,99189.76
2019-04-06T00:19:03.415Z,99195.42
2019-04-06T00:19:34.668Z,99192.96
2019-04-06T00:20:05.888Z,99191.38
2019-04-06T00:20:37.094Z,99191.02
2019-04-06T00:21:08.371Z,99185.87
2019-04-06T00:21:39.671Z,99192.87
2019-04-06T00:22:11.889Z,99185.04
2019-04-06T00:22:43.071Z,99192.91
2019-04-06T00:23:14.288Z,99183.50
2019-04-06T00:23:48.335Z,99179.61
2019-04-06T00:24:19.576Z,99182.53
2019-04-06T00:24:50.876Z,99181.19
2019-04-06T00:25:22.132Z,99180.40
2019-04-06T00:25:55.767Z,99184.71
2019-04-06T00:26:27.053Z,99186.05
2019-04-06T00:26:58.327Z,99189.98
2019-04-06T00:27:29.550Z,99187.39
2019-04-06T00:28:00.868Z,99186.14
2019-04-06T00:28:32.179Z,99186.55
2019-04-06T00:29:03.409Z,99192.30
2019-04-06T00:29:34.684Z,99192.72
2019-04-06T00:30:05.998Z,99189.62
2019-04-06T00:30:37.259Z,99186.52
2019-04-06T00:31:08.555Z,99187.86
2019-04-06T00:31:39.855Z,99196.47
2019-04-06T00:32:11.238Z,99193.66
2019-04-06T00:32:45.165Z,99193.60
2019-04-06T00:33:16.398Z,99190.08
2019-04-06T00:33:47.694Z,99190.51
2019-04-06T00:34:21.745Z,99187.58
2019-04-06T00:34:53.056Z,99188.09
2019-04-06T00:35:24.356Z,99185.95
2019-04-06T00:35:55.697Z,99186.37
2019-04-06T00:36:29.843Z,99184.30
2019-04-06T00:37:01.084Z,99186.55
2019-04-06T00:37:32.337Z,99184.84
2019-04-06T00:38:03.657Z,99189.11
2019-04-06T00:38:34.944Z,99186.05
2019-04-06T00:39:06.157Z,99189.48
2019-04-06T00:39:37.400Z,99187.72
2019-04-06T00:40:08.591Z,99186.75
2019-04-06T00:40:39.889Z,99181.51
2019-04-06T00:41:11.180Z,99184.58
2019-04-06T00:41:42.420Z,99182.07
2019-04-06T00:42:13.659Z,99188.14
2019-04-06T00:42:44.893Z,99189.84
2019-04-06T00:43:16.133Z,99180.77
2019-04-06T00:43:47.430Z,99179.94
2019-04-06T00:44:18.809Z,99186.42
2019-04-06T00:44:50.185Z,99178.31
2019-04-06T00:45:21.463Z,99183.17
2019-04-06T00:45:52.833Z,99173.30
2019-04-06T00:46:24.126Z,99175.34
2019-04-06T00:46:55.356Z,99178.41
2019-04-06T00:47:26.654Z,99180.63
2019-04-06T00:47:57.934Z,99175.81
2019-04-06T00:48:29.192Z,99181.51
2019-04-06T00:49:00.432Z,99181.14
2019-04-06T00:49:31.699Z,99176.45
2019-04-06T00:50:02.888Z,99175.16
2019-04-06T00:50:34.532Z,99175.16
2019-04-06T00:51:05.771Z,99170.44
2019-04-06T00:51:37.001Z,99173.22
2019-04-06T00:52:08.224Z,99167.47
2019-04-06T00:52:39.461Z,99176.59
2019-04-06T00:53:13.732Z,99179.05
2019-04-06T00:53:44.969Z,99171.50
2019-04-06T00:54:17.129Z,99175.70
2019-04-06T00:54:48.616Z,99172.65
2019-04-06T00:55:19.911Z,99177.47
2019-04-06T00:55:55.969Z,99174.59
2019-04-06T00:56:24.051Z,99173.85
2019-04-06T00:56:55.338Z,99176.09
2019-04-06T00:57:26.597Z,99173.68
2019-04-06T00:57:57.954Z,99169.27
2019-04-06T00:58:29.229Z,99173.86
2019-04-06T00:59:03.304Z,99168.25
2019-04-06T00:59:34.722Z,99176.03
2019-04-06T01:00:06.061Z,99180.39
2019-04-06T01:00:37.306Z,99176.27
2019-04-06T01:01:10.891Z,99172.38
2019-04-06T01:01:43.045Z,99174.52
2019-04-06T01:02:14.332Z,99177.06
2019-04-06T01:02:45.550Z,99176.65
2019-04-06T01:03:16.804Z,99175.44
2019-04-06T01:03:48.079Z,99178.97
2019-04-06T01:04:19.293Z,99181.51
2019-04-06T01:04:50.540Z,99181.00
2019-04-06T01:05:21.811Z,99178.50
2019-04-06T01:05:53.173Z,99178.03
2019-04-06T01:06:24.434Z,99178.31
2019-04-06T01:06:55.649Z,99174.28
2019-04-06T01:07:26.862Z,99177.42
2019-04-06T01:07:58.181Z,99174.98
2019-04-06T01:08:29.365Z,99175.30
2019-04-06T01:09:00.655Z,99173.69
2019-04-06T01:09:31.893Z,99174.66
2019-04-06T01:10:03.159Z,99169.64
2019-04-06T01:10:34.544Z,99169.73
2019-04-06T01:11:05.789Z,99171.58
2019-04-06T01:11:37.144Z,99164.83
2019-04-06T01:12:08.402Z,99170.25
2019-04-06T01:12:39.675Z,99166.81
2019-04-06T01:13:13.226Z,99166.91
2019-04-06T01:13:44.533Z,99168.34
2019-04-06T01:14:15.951Z,99170.33
2019-04-06T01:14:47.179Z,99161.76
2019-04-06T01:15:18.446Z,99170.85
2019-04-06T01:15:49.776Z,99172.80
2019-04-06T01:16:21.037Z,99167.23
2019-04-06T01:16:52.257Z,99174.56
2019-04-06T01:17:23.541Z,99170.94
2019-04-06T01:17:54.742Z,99171.77
2019-04-06T01:18:26.041Z,99174.28
2019-04-06T01:18:57.361Z,99176.78
2019-04-06T01:19:28.824Z,99167.27
2019-04-06T01:20:00.252Z,99169.13
2019-04-06T01:20:33.294Z,99173.17
2019-04-06T01:21:04.596Z,99172.89
2019-04-06T01:21:35.900Z,99172.56
2019-04-06T01:22:07.139Z,99176.55
2019-04-06T01:22:38.452Z,99167.52
2019-04-06T01:23:09.630Z,99169.23
2019-04-06T01:23:40.867Z,99170.66
2019-04-06T01:24:12.153Z,99165.11
2019-04-06T01:24:43.373Z,99167.33
2019-04-06T01:25:14.628Z,99161.67
2019-04-06T01:25:47.862Z,99162.88
2019-04-06T01:26:19.179Z,99161.91
2019-04-06T01:26:50.399Z,99163.20
2019-04-06T01:27:21.703Z,99162.88
2019-04-06T01:27:52.941Z,99161.02
2019-04-06T01:28:24.184Z,99164.27
2019-04-06T01:28:55.472Z,99167.70
2019-04-06T01:29:26.809Z,99167.28
2019-04-06T01:29:58.068Z,99169.74
2019-04-06T01:30:29.420Z,99168.30
2019-04-06T01:31:00.770Z,99174.65
2019-04-06T01:31:32.012Z,99173.54
2019-04-06T01:32:03.311Z,99171.08
2019-04-06T01:32:34.703Z,99174.66
2019-04-06T01:33:06.007Z,99176.13
2019-04-06T01:33:37.297Z,99180.48
2019-04-06T01:34:08.558Z,99178.81
2019-04-06T01:34:39.931Z,99177.16
2019-04-06T01:35:13.015Z,99170.30
2019-04-06T01:35:44.307Z,99172.14
2019-04-06T01:36:15.625Z,99181.96
2019-04-06T01:36:46.965Z,99172.51
2019-04-06T01:37:18.291Z,99175.53
2019-04-06T01:37:49.618Z,99180.80
2019-04-06T01:38:23.806Z,99175.70
2019-04-06T01:38:56.268Z,99177.96
2019-04-06T01:39:27.565Z,99179.39
2019-04-06T01:40:01.661Z,99177.59
2019-04-06T01:40:32.942Z,99174.29
2019-04-06T01:41:04.234Z,99175.63
2019-04-06T01:41:35.526Z,99178.18
2019-04-06T01:42:06.842Z,99182.48
2019-04-06T01:42:38.149Z,99175.17
2019-04-06T01:43:09.390Z,99176.42
2019-04-06T01:43:40.724Z,99181.56
2019-04-06T01:44:11.996Z,99169.89
2019-04-06T01:44:43.249Z,99172.16
2019-04-06T01:45:14.590Z,99175.50
2019-04-06T01:45:45.804Z,99176.16
2019-04-06T01:46:18.421Z,99174.27
2019-04-06T01:46:49.688Z,99178.16
2019-04-06T01:47:21.007Z,99170.42
2019-04-06T01:47:55.015Z,99174.31
2019-04-06T01:48:26.367Z,99171.81
2019-04-06T01:48:57.605Z,99174.07
2019-04-06T01:49:28.888Z,99171.47
2019-04-06T01:50:00.200Z,99172.36
2019-04-06T01:50:31.441Z,99167.63
2019-04-06T01:51:02.671Z,99173.37
2019-04-06T01:51:33.898Z,99170.36
2019-04-06T01:52:05.136Z,99165.92
2019-04-06T01:52:39.453Z,99166.75
2019-04-06T01:53:10.810Z,99167.37
2019-04-06T01:53:42.101Z,99164.50
2019-04-06T01:54:13.344Z,99165.70
2019-04-06T01:54:44.647Z,99169.00
2019-04-06T01:55:16.600Z,99167.38
2019-04-06T01:55:48.091Z,99166.95
2019-04-06T01:56:19.786Z,99166.49
2019-04-06T01:56:51.075Z,99169.70
2019-04-06T01:57:22.335Z,99166.72
2019-04-06T01:57:53.541Z,99172.28
2019-04-06T01:58:24.757Z,99172.75
2019-04-06T01:58:56.178Z,99169.33
2019-04-06T01:59:27.487Z,99171.73
2019-04-06T01:59:58.727Z,99170.19
2019-04-06T02:00:29.975Z,99174.96
2019-04-06T02:01:01.258Z,99169.78
2019-04-06T02:01:32.517Z,99174.55
2019-04-06T02:02:03.802Z,99176.27
2019-04-06T02:02:35.046Z,99174.55
2019-04-06T02:03:06.283Z,99169.77
2019-04-06T02:03:37.587Z,99167.60
2019-04-06T02:04:08.901Z,99168.90
2019-04-06T02:04:40.298Z,99167.69
2019-04-06T02:05:11.480Z,99164.67
2019-04-06T02:05:42.713Z,99162.97
2019-04-06T02:06:13.995Z,99169.05
2019-04-06T02:06:45.393Z,99166.45
2019-04-06T02:07:16.706Z,99167.75
2019-04-06T02:07:47.994Z,99166.80
2019-04-06T02:08:19.230Z,99162.77
2019-04-06T02:08:50.513Z,99167.87
2019-04-06T02:09:21.872Z,99166.25
2019-04-06T02:09:53.110Z,99160.70
2019-04-06T02:10:24.322Z,99169.45
2019-04-06T02:10:55.617Z,99167.79
2019-04-06T02:11:26.923Z,99163.37
2019-04-06T02:11:58.136Z,99169.11
2019-04-06T02:12:29.436Z,99169.36
2019-04-06T02:13:00.687Z,99162.95
2019-04-06T02:13:32.055Z,99169.64
2019-04-06T02:14:03.368Z,99163.00
2019-04-06T02:14:34.630Z,99167.25
2019-04-06T02:15:05.879Z,99163.20
2019-04-06T02:15:37.179Z,99164.72
2019-04-06T02:16:08.456Z,99163.09
2019-04-06T02:16:39.748Z,99162.45
2019-04-06T02:17:10.967Z,99158.69
2019-04-06T02:17:42.213Z,99160.13
2019-04-06T02:18:13.520Z,99166.16
2019-04-06T02:18:44.730Z,99160.64
2019-04-06T02:19:16.000Z,99155.10
2019-04-06T02:19:47.272Z,99160.63
2019-04-06T02:20:18.525Z,99159.90
2019-04-06T02:20:49.823Z,99161.56
2019-04-06T02:21:21.035Z,99161.67
2019-04-06T02:21:52.284Z,99164.95
2019-04-06T02:22:23.587Z,99163.36
2019-04-06T02:22:54.786Z,99161.53
2019-04-06T02:23:26.036Z,99163.25
2019-04-06T02:23:57.339Z,99163.83
2019-04-06T02:24:28.668Z,99167.31
2019-04-06T02:24:59.976Z,99167.07
2019-04-06T02:25:31.287Z,99167.60
2019-04-06T02:26:02.659Z,99163.17
2019-04-06T02:26:35.143Z,99161.82
2019-04-06T02:27:06.408Z,99162.86
2019-04-06T02:27:40.700Z,99158.23
2019-04-06T02:28:11.967Z,99166.15
2019-04-06T02:28:43.190Z,99164.23
2019-04-06T02:29:14.379Z,99164.65
2019-04-06T02:29:45.661Z,99167.40
2019-04-06T02:30:16.973Z,99159.38
2019-04-06T02:30:48.266Z,99166.59
2019-04-06T02:31:19.473Z,99166.63
2019-04-06T02:31:50.680Z,99167.00
2019-04-06T02:32:21.951Z,99167.77
2019-04-06T02:32:53.220Z,99166.80
2019-04-06T02:33:24.621Z,99169.25
2019-04-06T02:33:56.099Z,99169.97
2019-04-06T02:34:27.337Z,99163.86
2019-04-06T02:34:58.590Z,99171.50
2019-04-06T02:35:29.863Z,99164.16
2019-04-06T02:36:01.201Z,99166.81
2019-04-06T02:36:32.548Z,99162.58
2019-04-06T02:37:03.813Z,99168.41
2019-04-06T02:37:35.045Z,99167.87
2019-04-06T02:38:06.478Z,99167.45
2019-04-06T02:38:37.804Z,99167.05
2019-04-06T02:39:09.101Z,99172.08
2019-04-06T02:39:42.123Z,99172.01
2019-04-06T02:40:13.495Z,99167.06
2019-04-06T02:40:44.788Z,99173.27
2019-04-06T02:41:16.086Z,99172.63
2019-04-06T02:41:47.348Z,99171.61
2019-04-06T02:42:18.637Z,99170.44
2019-04-06T02:42:49.876Z,99174.11
2019-04-06T02:43:21.191Z,99167.66
2019-04-06T02:43:52.658Z,99165.17
2019-04-06T02:44:25.022Z,99165.64
2019-04-06T02:44:56.307Z,99166.89
2019-04-06T02:45:27.593Z,99162.14
2019-04-06T02:45:58.799Z,99169.77
2019-04-06T02:46:31.148Z,99159.56
2019-04-06T02:47:02.638Z,99162.68
2019-04-06T02:47:33.925Z,99167.53
2019-04-06T02:48:05.229Z,99165.47
2019-04-06T02:48:36.551Z,99165.94
2019-04-06T02:49:08.057Z,99166.28
2019-04-06T02:49:39.375Z,99168.66
2019-04-06T02:50:10.629Z,99164.23
2019-04-06T02:50:41.918Z,99169.06
2019-04-06T02:51:13.306Z,99169.14
2019-04-06T02:51:44.664Z,99169.08
2019-04-06T02:52:15.933Z,99170.26
2019-04-06T02:52:47.154Z,99168.72
2019-04-06T02:53:18.452Z,99171.50
2019-04-06T02:53:51.734Z,99177.83
2019-04-06T02:54:22.645Z,99177.22
2019-04-06T02:54:53.935Z,99176.59
2019-04-06T02:55:25.198Z,99176.87
2019-04-06T02:55:56.440Z,99176.36
2019-04-06T02:56:27.765Z,99171.08
2019-04-06T02:56:59.027Z,99177.23
2019-04-06T02:57:30.681Z,99176.71
2019-04-06T02:58:01.946Z,99174.45
2019-04-06T02:58:33.179Z,99176.13
2019-04-06T02:59:04.660Z,99175.28
2019-04-06T02:59:35.954Z,99173.22
2019-04-06T03:00:07.204Z,99175.52
2019-04-06T03:00:38.568Z,99172.09
2019-04-06T03:01:09.824Z,99178.70
2019-04-06T03:01:41.061Z,99174.03
2019-04-06T03:02:12.368Z,99167.70
2019-04-06T03:02:43.676Z,99172.39
2019-04-06T03:03:14.946Z,99175.73
2019-04-06T03:03:46.198Z,99181.81
2019-04-06T03:04:17.563Z,99178.68
2019-04-06T03:04:48.947Z,99180.75
2019-04-06T03:05:20.204Z,99175.91
2019-04-06T03:05:51.452Z,99178.16
2019-04-06T03:06:22.753Z,99179.88
2019-04-06T03:06:54.038Z,99182.12
2019-04-06T03:07:25.431Z,99179.16
2019-04-06T03:07:56.704Z,99173.89
2019-04-06T03:08:27.997Z,99178.27
2019-04-06T03:08:59.185Z,99176.15
2019-04-06T03:09:30.441Z,99179.43
2019-04-06T03:10:02.961Z,99174.39
2019-04-06T03:10:34.204Z,99176.63
2019-04-06T03:11:05.481Z,99170.66
2019-04-06T03:11:39.467Z,99177.80
2019-04-06T03:12:10.751Z,99172.23
2019-04-06T03:12:42.026Z,99173.17
2019-04-06T03:13:13.303Z,99172.71
2019-04-06T03:13:44.689Z,99174.72
2019-04-06T03:14:15.904Z,99169.36
2019-04-06T03:14:47.137Z,99174.56
2019-04-06T03:15:20.092Z,99171.55
2019-04-06T03:15:51.364Z,99173.02
2019-04-06T03:16:22.646Z,99174.00
2019-04-06T03:16:56.596Z,99175.11
2019-04-06T03:17:27.925Z,99170.99
2019-04-06T03:17:59.286Z,99175.78
2019-04-06T03:18:30.627Z,99182.11
2019-04-06T03:19:02.832Z,99175.67
2019-04-06T03:19:34.127Z,99180.55
2019-04-06T03:20:05.375Z,99182.50
2019-04-06T03:20:36.703Z,99174.30
2019-04-06T03:21:07.975Z,99176.13
2019-04-06T03:21:39.242Z,99173.47
2019-04-06T03:22:10.515Z,99174.30
2019-04-06T03:22:41.869Z,99172.52
2019-04-06T03:23:13.121Z,99167.22
2019-04-06T03:23:51.240Z,99164.61
2019-04-06T03:24:17.419Z,99168.16
2019-04-06T03:24:48.724Z,99167.80
2019-04-06T03:25:20.153Z,99163.99
2019-04-06T03:25:51.441Z,99167.07
2019-04-06T03:26:22.743Z,99165.82
2019-04-06T03:27:01.961Z,99174.62
2019-04-06T03:27:26.895Z,99176.91
2019-04-06T03:27:58.303Z,99180.88
2019-04-06T03:28:29.575Z,99178.01
2019-04-06T03:29:00.885Z,99182.44
2019-04-06T03:29:32.097Z,99182.91
2019-04-06T03:30:03.614Z,99186.17
2019-04-06T03:30:34.881Z,99179.41
2019-04-06T03:31:06.166Z,99176.31
2019-04-06T03:31:37.359Z,99174.06
2019-04-06T03:32:08.693Z,99174.90
2019-04-06T03:32:40.351Z,99185.59
2019-04-06T03:33:11.738Z,99174.51
2019-04-06T03:33:43.213Z,99183.98
2019-04-06T03:34:20.003Z,99177.88
2019-04-06T03:34:47.668Z,99173.32
2019-04-06T03:35:21.252Z,99180.84
2019-04-06T03:35:52.685Z,99181.83
2019-04-06T03:36:24.168Z,99182.23
2019-04-06T03:36:55.444Z,99187.13
2019-04-06T03:37:26.670Z,99184.64
2019-04-06T03:37:57.888Z,99189.42
2019-04-06T03:38:29.340Z,99191.44
2019-04-06T03:39:00.668Z,99184.77
2019-04-06T03:39:31.931Z,99187.20
2019-04-06T03:40:03.198Z,99191.83
2019-04-06T03:40:34.540Z,99188.05
2019-04-06T03:41:05.801Z,99191.11
2019-04-06T03:41:37.066Z,99184.60
2019-04-06T03:42:10.636Z,99185.39
2019-04-06T03:42:41.415Z,99185.73
2019-04-06T03:43:12.651Z,99190.59
2019-04-06T03:43:43.895Z,99188.98
2019-04-06T03:44:15.290Z,99192.16
2019-04-06T03:44:46.461Z,99192.27
2019-04-06T03:45:17.721Z,99189.73
2019-04-06T03:45:48.955Z,99186.41
2019-04-06T03:46:20.348Z,99189.28
2019-04-06T03:46:51.611Z,99190.52
2019-04-06T03:47:22.855Z,99188.71
2019-04-06T03:47:54.087Z,99192.34
2019-04-06T03:48:28.163Z,99191.11
2019-04-06T03:48:59.768Z,99198.19
2019-04-06T03:49:31.087Z,99198.89
2019-04-06T03:50:02.412Z,99196.72
2019-04-06T03:50:33.636Z,99195.94
2019-04-06T03:51:04.937Z,99191.31
2019-04-06T03:51:36.321Z,99195.82
2019-04-06T03:52:07.570Z,99190.22
2019-04-06T03:52:38.834Z,99193.02
2019-04-06T03:53:10.184Z,99193.72
2019-04-06T03:53:41.425Z,99195.39
2019-04-06T03:54:12.721Z,99190.23
2019-04-06T03:54:44.045Z,99190.83
2019-04-06T03:55:15.301Z,99199.45
2019-04-06T03:55:49.527Z,99194.91
2019-04-06T03:56:21.070Z,99191.13
2019-04-06T03:56:52.329Z,99190.08
2019-04-06T03:57:23.552Z,99189.19
2019-04-06T03:57:54.811Z,99197.12
2019-04-06T03:58:26.155Z,99193.91
2019-04-06T03:58:57.543Z,99189.05
2019-04-06T03:59:28.935Z,99191.89
2019-04-06T04:00:00.193Z,99190.02
2019-04-06T04:00:31.572Z,99188.91
2019-04-06T04:01:02.950Z,99194.52
2019-04-06T04:01:34.315Z,99196.11
2019-04-06T04:02:05.658Z,99191.27
2019-04-06T04:02:36.960Z,99196.20
2019-04-06T04:03:08.392Z,99197.34
2019-04-06T04:03:39.677Z,99204.66
2019-04-06T04:04:11.033Z,99199.05
2019-04-06T04:04:42.372Z,99200.98
2019-04-06T04:05:13.695Z,99198.02
2019-04-06T04:05:44.949Z,99203.99
2019-04-06T04:06:16.210Z,99205.43
2019-04-06T04:06:47.468Z,99202.55
2019-04-06T04:07:19.088Z,99203.25
2019-04-06T04:07:53.365Z,99202.66
2019-04-06T04:08:24.767Z,99203.14
2019-04-06T04:08:56.067Z,99206.56
2019-04-06T04:09:27.319Z,99205.16
2019-04-06T04:09:58.658Z,99206.22
2019-04-06T04:10:29.998Z,99203.63
2019-04-06T04:11:01.561Z,99202.95
2019-04-06T04:11:33.231Z,99204.08
2019-04-06T04:12:04.483Z,99206.45
2019-04-06T04:12:35.845Z,99200.89
2019-04-06T04:13:07.144Z,99208.27
2019-04-06T04:13:38.781Z,99210.90
2019-04-06T04:14:11.278Z,99205.61
2019-04-06T04:14:42.587Z,99212.66
2019-04-06T04:15:15.126Z,99212.30
2019-04-06T04:15:46.453Z,99202.13
2019-04-06T04:16:17.843Z,99211.62
2019-04-06T04:16:49.119Z,99208.77
2019-04-06T04:17:20.517Z,99214.09
2019-04-06T04:17:51.813Z,99210.37
2019-04-06T04:18:23.118Z,99217.00
2019-04-06T04:18:57.124Z,99218.35
2019-04-06T04:19:28.561Z,99218.86
2019-04-06T04:19:59.943Z,99210.12
2019-04-06T04:20:31.249Z,99214.50
2019-04-06T04:21:02.587Z,99213.02
2019-04-06T04:21:33.933Z,99211.77
2019-04-06T04:22:05.205Z,99214.01
2019-04-06T04:22:36.572Z,99213.29
2019-04-06T04:23:07.911Z,99209.57
2019-04-06T04:23:39.234Z,99214.58
2019-04-06T04:24:10.509Z,99213.38
2019-04-06T04:24:41.798Z,99211.50
2019-04-06T04:25:13.061Z,99207.84
2019-04-06T04:25:44.505Z,99214.48
2019-04-06T04:26:15.901Z,99214.01
2019-04-06T04:26:47.179Z,99215.72
2019-04-06T04:27:28.287Z,99218.05
2019-04-06T04:27:51.425Z,99213.66
2019-04-06T04:28:22.815Z,99213.25
2019-04-06T04:28:56.204Z,99214.09
2019-04-06T04:29:27.178Z,99215.39
2019-04-06T04:29:58.537Z,99218.09
2019-04-06T04:30:33.388Z,99215.61
2019-04-06T04:31:03.094Z,99214.42
2019-04-06T04:31:34.457Z,99216.61
2019-04-06T04:32:05.698Z,99218.32
2019-04-06T04:32:36.975Z,99216.86
2019-04-06T04:33:08.257Z,99216.63
2019-04-06T04:33:39.564Z,99214.98
2019-04-06T04:34:10.890Z,99218.71
2019-04-06T04:34:42.195Z,99220.53
2019-04-06T04:35:13.472Z,99213.69
2019-04-06T04:35:44.733Z,99221.14
2019-04-06T04:36:16.054Z,99216.92
2019-04-06T04:36:47.350Z,99220.72
2019-04-06T04:37:20.702Z,99222.60
2019-04-06T04:37:52.011Z,99220.16
2019-04-06T04:38:23.329Z,99219.38
2019-04-06T04:38:54.721Z,99222.99
2019-04-06T04:39:26.065Z,99223.45
2019-04-06T04:39:57.317Z,99231.47
2019-04-06T04:40:31.112Z,99231.42
2019-04-06T04:41:02.418Z,99234.50
2019-04-06T04:41:33.929Z,99231.06
2019-04-06T04:42:05.234Z,99231.85
2019-04-06T04:42:36.634Z,99236.31
2019-04-06T04:43:07.945Z,99229.56
2019-04-06T04:43:39.246Z,99233.63
2019-04-06T04:44:10.597Z,99231.09
2019-04-06T04:44:41.973Z,99233.78
2019-04-06T04:45:13.451Z,99229.94
2019-04-06T04:45:45.010Z,99229.84
2019-04-06T04:46:18.294Z,99231.45
2019-04-06T04:46:50.491Z,99233.00
2019-04-06T04:47:21.767Z,99233.16
2019-04-06T04:47:52.983Z,99232.92
2019-04-06T04:48:24.298Z,99231.98
2019-04-06T04:48:57.109Z,99230.56
2019-04-06T04:49:31.247Z,99232.22
2019-04-06T04:50:02.554Z,99226.13
2019-04-06T04:50:33.823Z,99233.06
2019-04-06T04:51:05.186Z,99227.59
2019-04-06T04:51:39.571Z,99228.14
2019-04-06T04:52:13.637Z,99234.91
2019-04-06T04:52:47.333Z,99231.59
2019-04-06T04:53:18.644Z,99230.29
2019-04-06T04:53:50.059Z,99234.67
2019-04-06T04:54:22.638Z,99236.48
2019-04-06T04:54:58.414Z,99233.94
2019-04-06T04:55:29.733Z,99234.42
2019-04-06T04:56:02.811Z,99231.81
2019-04-06T04:56:34.207Z,99235.66
2019-04-06T04:57:05.523Z,99229.63
2019-04-06T04:57:41.261Z,99237.48
2019-04-06T04:58:09.845Z,99239.23
2019-04-06T04:58:41.173Z,99233.28
2019-04-06T04:59:14.443Z,99229.89
2019-04-06T04:59:45.731Z,99232.96
2019-04-06T05:00:17.009Z,99235.14
2019-04-06T05:00:48.351Z,99241.48
2019-04-06T05:01:19.660Z,99243.50
2019-04-06T05:01:52.894Z,99241.58
2019-04-06T05:02:26.260Z,99248.44
2019-04-06T05:02:57.565Z,99242.06
2019-04-06T05:03:28.912Z,99244.13
2019-04-06T05:04:00.245Z,99244.48
2019-04-06T05:04:31.496Z,99246.09
2019-04-06T05:05:02.771Z,99244.67
2019-04-06T05:05:34.160Z,99248.69
2019-04-06T05:06:05.457Z,99251.72
2019-04-06T05:06:36.788Z,99250.83
2019-04-06T05:07:08.058Z,99248.33
2019-04-06T05:07:39.449Z,99247.82
2019-04-06T05:08:10.686Z,99252.28
2019-04-06T05:08:41.991Z,99249.13
2019-04-06T05:09:13.230Z,99242.08
2019-04-06T05:09:44.708Z,99242.08
2019-04-06T05:10:16.067Z,99248.06
2019-04-06T05:10:47.365Z,99247.11
2019-04-06T05:11:19.676Z,99246.70
2019-04-06T05:11:52.769Z,99255.70
2019-04-06T05:12:24.000Z,99253.22
2019-04-06T05:12:55.266Z,99245.52
2019-04-06T05:13:26.506Z,99249.11
2019-04-06T05:14:00.812Z,99249.63
2019-04-06T05:14:34.259Z,99249.17
2019-04-06T05:15:09.482Z,99248.76
2019-04-06T05:15:40.703Z,99251.82
2019-04-06T05:16:12.159Z,99256.61
2019-04-06T05:16:49.318Z,99248.08
2019-04-06T05:17:20.527Z,99257.19
2019-04-06T05:17:51.835Z,99253.65
2019-04-06T05:18:23.145Z,99254.53
2019-04-06T05:18:56.919Z,99259.21
2019-04-06T05:19:43.042Z,99256.64
2019-04-06T05:20:14.325Z,99253.53
2019-04-06T05:20:45.592Z,99251.25
2019-04-06T05:21:19.268Z,99249.83
2019-04-06T05:21:50.575Z,99247.89
2019-04-06T05:22:21.789Z,99254.68
2019-04-06T05:22:56.449Z,99256.64
2019-04-06T05:23:27.786Z,99259.58
2019-04-06T05:24:04.177Z,99259.88
2019-04-06T05:24:35.027Z,99258.08
2019-04-06T05:25:08.188Z,99253.47
2019-04-06T05:25:39.515Z,99256.57
2019-04-06T05:26:12.810Z,99260.30
2019-04-06T05:26:46.890Z,99264.98
2019-04-06T05:27:18.246Z,99261.95
2019-04-06T05:27:52.714Z,99262.48
2019-04-06T05:28:22.479Z,99256.34
2019-04-06T05:28:53.751Z,99257.81
2019-04-06T05:29:25.013Z,99264.20
2019-04-06T05:29:56.491Z,99264.96
2019-04-06T05:30:27.750Z,99260.70
2019-04-06T05:31:07.768Z,99261.67
2019-04-06T05:31:39.337Z,99261.67
2019-04-06T05:32:10.619Z,99266.99
2019-04-06T05:32:44.259Z,99260.91
2019-04-06T05:33:15.527Z,99265.17
2019-04-06T05:33:46.775Z,99260.83
2019-04-06T05:34:18.012Z,99266.62
2019-04-06T05:34:49.285Z,99265.06
2019-04-06T05:35:20.647Z,99267.13
2019-04-06T05:35:51.944Z,99266.72
2019-04-06T05:36:23.329Z,99268.48
2019-04-06T05:36:54.751Z,99272.94
2019-04-06T05:37:26.024Z,99266.86
2019-04-06T05:37:57.442Z,99265.66
2019-04-06T05:38:28.793Z,99268.89
2019-04-06T05:39:00.069Z,99269.00
2019-04-06T05:39:31.468Z,99266.47
2019-04-06T05:40:02.725Z,99266.09
2019-04-06T05:40:34.017Z,99268.30
2019-04-06T05:41:05.288Z,99265.63
2019-04-06T05:41:36.573Z,99266.81
2019-04-06T05:42:07.858Z,99270.19
2019-04-06T05:42:40.797Z,99273.27
2019-04-06T05:43:12.076Z,99261.67
2019-04-06T05:43:43.363Z,99265.00
2019-04-06T05:44:14.622Z,99264.84
2019-04-06T05:44:45.909Z,99264.13
2019-04-06T05:45:17.197Z,99263.33
2019-04-06T05:45:48.445Z,99262.13
2019-04-06T05:46:19.725Z,99266.11
2019-04-06T05:46:51.022Z,99266.04
2019-04-06T05:47:22.365Z,99265.14
2019-04-06T05:47:53.652Z,99268.09
2019-04-06T05:48:25.029Z,99268.09
2019-04-06T05:48:59.208Z,99264.46
2019-04-06T05:49:30.692Z,99269.37
2019-04-06T05:50:02.053Z,99263.52
2019-04-06T05:50:33.421Z,99268.52
2019-04-06T05:51:04.861Z,99266.20
2019-04-06T05:51:36.124Z,99273.31
2019-04-06T05:52:07.453Z,99266.97
2019-04-06T05:52:38.712Z,99268.10
2019-04-06T05:53:10.178Z,99274.89
2019-04-06T05:53:41.407Z,99271.63
2019-04-06T05:54:12.679Z,99278.77
2019-04-06T05:54:44.076Z,99277.27
2019-04-06T05:55:15.421Z,99276.78
2019-04-06T05:57:37.253Z,99277.13
2019-04-06T05:58:10.608Z,99281.80
2019-04-06T05:58:44.351Z,99276.34
2019-04-06T05:59:15.324Z,99279.91
2019-04-06T05:59:46.520Z,99279.27
2019-04-06T06:00:18.184Z,99283.30
2019-04-06T06:00:52.051Z,99276.80
2019-04-06T06:01:23.321Z,99280.22
2019-04-06T06:01:54.663Z,99281.04
2019-04-06T06:02:25.894Z,99279.81
2019-04-06T06:02:57.119Z,99282.48
2019-04-06T06:03:28.322Z,99279.06
2019-04-06T06:04:01.003Z,99276.97
2019-04-06T06:04:40.275Z,99284.06
2019-04-06T06:05:14.034Z,99281.68
2019-04-06T06:05:45.423Z,99282.88
2019-04-06T06:06:19.298Z,99281.45
2019-04-06T06:06:50.508Z,99283.08
2019-04-06T06:07:21.771Z,99284.80
2019-04-06T06:07:53.036Z,99287.70
2019-04-06T06:08:27.370Z,99281.47
2019-04-06T06:08:58.660Z,99279.36
2019-04-06T06:09:29.898Z,99273.80
2019-04-06T06:10:04.172Z,99279.22
2019-04-06T06:10:35.474Z,99279.85
2019-04-06T06:11:06.705Z,99277.09
2019-04-06T06:11:39.968Z,99273.53
2019-04-06T06:12:10.942Z,99273.47
2019-04-06T06:12:42.253Z,99275.73
2019-04-06T06:13:19.454Z,99270.23